| time (UTC) | temp C | wind direction | speed KPH | gust KPH | rain 1hr cm | rain 24hr cm | rain mn cm | humidity % | barometer mb |
| 20260508175503 | 17 | 285 | 1.6 | 11.3 | 0.00 | 0.00 | 0.00 | 54 | 1010.2 |
| 20260508175003 | 17 | 286 | 3.2 | 14.5 | 0.00 | 0.00 | 0.00 | 52 | 1010.3 |
| 20260508174505 | 17 | 268 | 3.2 | 14.5 | 0.00 | 0.00 | 0.00 | 55 | 1010.4 |
| 20260508174003 | 17 | 289 | 8.0 | 14.5 | 0.00 | 0.00 | 0.00 | 49 | 1010.6 |
| 20260508173503 | 17 | 295 | 4.8 | 12.9 | 0.00 | 0.00 | 0.00 | 51 | 1010.7 |
| 20260508173007 | 16 | 284 | 6.4 | 12.9 | 0.00 | 0.00 | 0.00 | 51 | 1010.8 |
| 20260508172504 | 16 | 261 | 6.4 | 17.7 | 0.00 | 0.00 | 0.00 | 54 | 1010.9 |
| 20260508172004 | 16 | 236 | 4.8 | 17.7 | 0.00 | 0.00 | 0.00 | 56 | 1011.1 |
| 20260508171514 | 16 | 315 | 4.8 | 11.3 | 0.00 | 0.00 | 0.00 | 56 | 1011.2 |
| 20260508171004 | 15 | 302 | 6.4 | 16.1 | 0.00 | 0.00 | 0.00 | 56 | 1011.3 |
| 20260508170506 | 15 | 316 | 4.8 | 17.7 | 0.00 | 0.00 | 0.00 | 56 | 1011.5 |
| 20260508170018 | 15 | 293 | 9.7 | 25.7 | 0.00 | 0.00 | 0.00 | 56 | 1011.5 |
| 20260508165503 | 15 | 290 | 12.9 | 27.4 | 0.00 | 0.00 | 0.00 | 54 | 1011.5 |
| 20260508165004 | 15 | 323 | 14.5 | 27.4 | 0.00 | 0.00 | 0.00 | 54 | 1011.5 |
| 20260508164523 | 15 | 262 | 12.9 | 24.1 | 0.00 | 0.00 | 0.00 | 54 | 1011.4 |
| 20260508164007 | 16 | 277 | 8.0 | 17.7 | 0.00 | 0.00 | 0.00 | 58 | 1011.5 |
| 20260508163503 | 16 | 316 | 9.7 | 17.7 | 0.00 | 0.00 | 0.00 | 55 | 1011.4 |
| 20260508163012 | 16 | 273 | 6.4 | 16.1 | 0.00 | 0.00 | 0.00 | 56 | 1011.4 |
| 20260508162504 | 15 | 207 | 4.8 | 14.5 | 0.00 | 0.00 | 0.00 | 58 | 1011.3 |
| 20260508162003 | 15 | 252 | 6.4 | 17.7 | 0.00 | 0.00 | 0.00 | 56 | 1011.4 |
| 20260508161510 | 15 | 217 | 4.8 | 17.7 | 0.00 | 0.00 | 0.00 | 60 | 1011.5 |
| 20260508161003 | 14 | 272 | 6.4 | 12.9 | 0.00 | 0.00 | 0.00 | 58 | 1011.5 |
| 20260508160501 | 14 | 310 | 6.4 | 12.9 | 0.00 | 0.00 | 0.00 | 61 | 1011.6 |
| 20260508160010 | 13 | 274 | 4.8 | 12.9 | 0.00 | 0.00 | 0.00 | 60 | 1011.7 |
| 20260508155505 | 13 | 243 | 6.4 | 12.9 | 0.00 | 0.00 | 0.00 | 61 | 1011.7 |
| 20260508155007 | 13 | 321 | 3.2 | 14.5 | 0.00 | 0.00 | 0.00 | 62 | 1011.7 |
| 20260508154518 | 12 | 314 | 4.8 | 14.5 | 0.00 | 0.00 | 0.00 | 62 | 1011.7 |
| 20260508154006 | 12 | 297 | 4.8 | 12.9 | 0.00 | 0.00 | 0.00 | 62 | 1011.8 |
| 20260508153510 | 12 | 272 | 3.2 | 11.3 | 0.00 | 0.00 | 0.00 | 62 | 1011.9 |
| 20260508153020 | 12 | 274 | 3.2 | 8.0 | 0.00 | 0.00 | 0.00 | 61 | 1011.8 |
| 20260508152510 | 12 | 299 | 3.2 | 9.7 | 0.00 | 0.00 | 0.00 | 62 | 1011.7 |
| 20260508152010 | 11 | 258 | 6.4 | 9.7 | 0.00 | 0.00 | 0.00 | 61 | 1011.8 |
| 20260508151506 | 11 | 295 | 3.2 | 9.7 | 0.00 | 0.00 | 0.00 | 62 | 1011.8 |
| 20260508151003 | 11 | 230 | 1.6 | 9.7 | 0.00 | 0.00 | 0.00 | 64 | 1011.8 |
| 20260508150503 | 11 | 283 | 1.6 | 12.9 | 0.00 | 0.00 | 0.00 | 64 | 1011.9 |
| 20260508150014 | 11 | 238 | 3.2 | 12.9 | 0.00 | 0.00 | 0.00 | 63 | 1011.9 |
| 20260508145502 | 11 | 281 | 4.8 | 12.9 | 0.00 | 0.00 | 0.00 | 63 | 1011.9 |
| 20260508145001 | 11 | 238 | 3.2 | 11.3 | 0.00 | 0.00 | 0.00 | 66 | 1011.9 |
| 20260508144515 | 11 | 271 | 3.2 | 11.3 | 0.00 | 0.00 | 0.00 | 64 | 1011.9 |
| 20260508144005 | 11 | 248 | 3.2 | 11.3 | 0.00 | 0.00 | 0.00 | 63 | 1011.9 |
| 20260508143507 | 11 | 247 | 3.2 | 11.3 | 0.00 | 0.00 | 0.00 | 64 | 1011.9 |
| 20260508143016 | 11 | 300 | 4.8 | 11.3 | 0.00 | 0.00 | 0.00 | 64 | 1011.8 |
| 20260508142506 | 11 | 238 | 3.2 | 11.3 | 0.00 | 0.00 | 0.00 | 65 | 1011.8 |
| 20260508142007 | 11 | 265 | 4.8 | 11.3 | 0.00 | 0.00 | 0.00 | 65 | 1011.8 |
| 20260508141535 | 11 | 284 | 3.2 | 11.3 | 0.00 | 0.00 | 0.00 | 66 | 1012.0 |
| 20260508141010 | 11 | 279 | 6.4 | 11.3 | 0.00 | 0.00 | 0.00 | 65 | 1012.0 |
| 20260508140516 | 11 | 219 | 3.2 | 9.7 | 0.00 | 0.00 | 0.00 | 66 | 1012.0 |
| 20260508140028 | 11 | 267 | 1.6 | 9.7 | 0.00 | 0.00 | 0.00 | 66 | 1012.0 |
| 20260508135506 | 11 | 302 | 3.2 | 9.7 | 0.00 | 0.00 | 0.00 | 65 | 1012.0 |
| 20260508135003 | 10 | 253 | 4.8 | 9.7 | 0.00 | 0.00 | 0.00 | 65 | 1012.0 |
| 20260508134517 | 10 | 246 | 4.8 | 12.9 | 0.00 | 0.00 | 0.00 | 65 | 1012.1 |
| 20260508134005 | 11 | 276 | 4.8 | 12.9 | 0.00 | 0.00 | 0.00 | 64 | 1012.1 |
| 20260508133507 | 11 | 224 | 4.8 | 12.9 | 0.00 | 0.00 | 0.00 | 65 | 1012.0 |
| 20260508133015 | 11 | 244 | 3.2 | 9.7 | 0.00 | 0.00 | 0.00 | 65 | 1011.9 |
| 20260508132511 | 11 | 276 | 4.8 | 9.7 | 0.00 | 0.00 | 0.00 | 65 | 1011.9 |
| 20260508132007 | 11 | 274 | 3.2 | 9.7 | 0.00 | 0.00 | 0.00 | 66 | 1011.9 |
| 20260508131522 | 11 | 287 | 4.8 | 9.7 | 0.00 | 0.00 | 0.00 | 64 | 1011.9 |
| 20260508131007 | 11 | 224 | 4.8 | 9.7 | 0.00 | 0.00 | 0.00 | 64 | 1011.8 |
| 20260508130507 | 10 | 264 | 1.6 | 14.5 | 0.00 | 0.00 | 0.00 | 66 | 1011.8 |
| 20260508130023 | 10 | 212 | 4.8 | 14.5 | 0.00 | 0.00 | 0.00 | 66 | 1011.9 |
| 20260508125510 | 10 | 239 | 8.0 | 16.1 | 0.00 | 0.00 | 0.00 | 65 | 1012.0 |
| 20260508125014 | 10 | 269 | 4.8 | 16.1 | 0.00 | 0.00 | 0.00 | 65 | 1011.9 |
| 20260508124531 | 10 | 255 | 6.4 | 14.5 | 0.00 | 0.00 | 0.00 | 65 | 1011.9 |
| 20260508124010 | 10 | 322 | 4.8 | 11.3 | 0.00 | 0.00 | 0.00 | 66 | 1011.8 |
| 20260508123511 | 10 | 307 | 4.8 | 12.9 | 0.00 | 0.00 | 0.00 | 67 | 1011.8 |
| 20260508123014 | 10 | 285 | 3.2 | 12.9 | 0.00 | 0.00 | 0.00 | 67 | 1011.8 |
| 20260508122503 | 9 | 277 | 3.2 | 11.3 | 0.00 | 0.00 | 0.00 | 68 | 1011.8 |
| 20260508122005 | 9 | 225 | 3.2 | 11.3 | 0.00 | 0.00 | 0.00 | 69 | 1011.8 |
| 20260508121516 | 8 | 230 | 4.8 | 11.3 | 0.00 | 0.00 | 0.00 | 69 | 1011.7 |
| 20260508121005 | 8 | 238 | 3.2 | 6.4 | 0.00 | 0.00 | 0.00 | 70 | 1011.6 |
| 20260508120506 | 8 | 217 | 3.2 | 8.0 | 0.00 | 0.00 | 0.00 | 70 | 1011.6 |
| 20260508120022 | 8 | 269 | 3.2 | 8.0 | 0.00 | 0.00 | 0.00 | 70 | 1011.7 |
| 20260508115507 | 8 | 274 | 3.2 | 8.0 | 0.00 | 0.00 | 0.00 | 71 | 1011.7 |
| 20260508115006 | 8 | 273 | 1.6 | 8.0 | 0.00 | 0.00 | 0.00 | 71 | 1011.7 |
| 20260508114524 | 8 | 257 | 3.2 | 8.0 | 0.00 | 0.00 | 0.00 | 70 | 1011.7 |
| 20260508114007 | 8 | 250 | 3.2 | 8.0 | 0.00 | 0.00 | 0.00 | 71 | 1011.6 |
| 20260508113510 | 8 | 252 | 0.0 | 4.8 | 0.00 | 0.00 | 0.00 | 72 | 1011.5 |
| 20260508113039 | 8 | 236 | 1.6 | 4.8 | 0.00 | 0.00 | 0.00 | 72 | 1011.5 |
| 20260508112510 | 7 | 272 | 1.6 | 4.8 | 0.00 | 0.00 | 0.00 | 73 | 1011.4 |
| 20260508112009 | 7 | 283 | 1.6 | 6.4 | 0.00 | 0.00 | 0.00 | 74 | 1011.5 |
| 20260508111528 | 7 | 225 | 1.6 | 6.4 | 0.00 | 0.00 | 0.00 | 75 | 1011.5 |
| 20260508111011 | 6 | 251 | 0.0 | 4.8 | 0.00 | 0.00 | 0.00 | 77 | 1011.6 |
| 20260508110504 | 6 | 233 | 0.0 | 3.2 | 0.00 | 0.00 | 0.00 | 79 | 1011.5 |
| 20260508110018 | 6 | 278 | 0.0 | 0.0 | 0.00 | 0.00 | 0.00 | 80 | 1011.4 |
| 20260508105505 | 5 | 278 | 0.0 | 1.6 | 0.00 | 0.00 | 0.00 | 81 | 1011.4 |
| 20260508105010 | 5 | 278 | 0.0 | 3.2 | 0.00 | 0.00 | 0.00 | 81 | 1011.3 |
| 20260508104522 | 5 | 279 | 0.0 | 3.2 | 0.00 | 0.00 | 0.00 | 82 | 1011.3 |
| 20260508104008 | 5 | 283 | 0.0 | 3.2 | 0.00 | 0.00 | 0.00 | 83 | 1011.2 |
| 20260508103508 | 5 | 272 | 0.0 | 1.6 | 0.00 | 0.00 | 0.00 | 84 | 1011.2 |
| 20260508103032 | 5 | 288 | 0.0 | 1.6 | 0.00 | 0.00 | 0.00 | 85 | 1011.1 |
| 20260508102504 | 5 | 246 | 0.0 | 1.6 | 0.00 | 0.00 | 0.00 | 86 | 1011.0 |
| 20260508102005 | 5 | 246 | 0.0 | 1.6 | 0.00 | 0.00 | 0.00 | 86 | 1011.0 |
| 20260508101518 | 4 | 240 | 0.0 | 0.0 | 0.00 | 0.00 | 0.00 | 88 | 1010.9 |
| 20260508101006 | 4 | 240 | 0.0 | 0.0 | 0.00 | 0.00 | 0.00 | 89 | 1010.9 |
| 20260508100503 | 4 | 240 | 0.0 | 0.0 | 0.00 | 0.00 | 0.00 | 90 | 1010.9 |
| 20260508100016 | 4 | 240 | 0.0 | 0.0 | 0.00 | 0.00 | 0.00 | 90 | 1010.9 |
| 20260508095505 | 4 | 240 | 0.0 | 0.0 | 0.00 | 0.00 | 0.00 | 90 | 1010.9 |
| 20260508095005 | 4 | 240 | 0.0 | 1.6 | 0.00 | 0.00 | 0.00 | 90 | 1010.9 |
| 20260508094518 | 4 | 240 | 0.0 | 1.6 | 0.00 | 0.00 | 0.00 | 90 | 1010.9 |
| 20260508094007 | 4 | 134 | 0.0 | 0.0 | 0.00 | 0.00 | 0.00 | 90 | 1011.0 |
| 20260508093509 | 4 | 134 | 0.0 | 0.0 | 0.00 | 0.00 | 0.00 | 90 | 1010.9 |
| 20260508093026 | 4 | 134 | 0.0 | 0.0 | 0.00 | 0.00 | 0.00 | 91 | 1011.0 |
| 20260508092503 | 4 | 134 | 0.0 | 0.0 | 0.00 | 0.00 | 0.00 | 91 | 1011.0 |
| 20260508092003 | 4 | 134 | 0.0 | 0.0 | 0.00 | 0.00 | 0.00 | 91 | 1011.1 |
| 20260508091507 | 4 | 134 | 0.0 | 0.0 | 0.00 | 0.00 | 0.00 | 91 | 1011.2 |
| 20260508091005 | 4 | 134 | 0.0 | 0.0 | 0.00 | 0.00 | 0.00 | 91 | 1011.2 |
| 20260508090504 | 4 | 134 | 0.0 | 0.0 | 0.00 | 0.00 | 0.00 | 91 | 1011.3 |
| 20260508090021 | 4 | 134 | 0.0 | 0.0 | 0.00 | 0.00 | 0.00 | 91 | 1011.3 |
| 20260508085504 | 4 | 134 | 0.0 | 0.0 | 0.00 | 0.00 | 0.00 | 90 | 1011.3 |
| 20260508085003 | 5 | 134 | 0.0 | 0.0 | 0.00 | 0.00 | 0.00 | 90 | 1011.3 |
| 20260508084514 | 5 | 134 | 0.0 | 0.0 | 0.00 | 0.00 | 0.00 | 90 | 1011.3 |
| 20260508084006 | 5 | 134 | 0.0 | 0.0 | 0.00 | 0.00 | 0.00 | 90 | 1011.3 |
| 20260508083505 | 5 | 134 | 0.0 | 0.0 | 0.00 | 0.00 | 0.00 | 89 | 1011.2 |
| 20260508083022 | 5 | 134 | 0.0 | 0.0 | 0.00 | 0.00 | 0.00 | 88 | 1011.3 |
| 20260508082508 | 5 | 134 | 0.0 | 0.0 | 0.00 | 0.00 | 0.00 | 87 | 1011.2 |
| 20260508082010 | 5 | 134 | 0.0 | 0.0 | 0.00 | 0.00 | 0.00 | 86 | 1011.3 |
| 20260508081525 | 5 | 134 | 0.0 | 0.0 | 0.00 | 0.00 | 0.00 | 85 | 1011.2 |
| 20260508081008 | 6 | 134 | 0.0 | 0.0 | 0.00 | 0.00 | 0.00 | 85 | 1011.2 |
| 20260508080510 | 6 | 134 | 0.0 | 0.0 | 0.00 | 0.00 | 0.00 | 85 | 1011.2 |
| 20260508080009 | 6 | 134 | 0.0 | 0.0 | 0.00 | 0.00 | 0.00 | 84 | 1011.2 |
| 20260508075504 | 6 | 134 | 0.0 | 0.0 | 0.00 | 0.00 | 0.00 | 83 | 1011.3 |
| 20260508075005 | 6 | 134 | 0.0 | 1.6 | 0.00 | 0.00 | 0.00 | 83 | 1011.3 |
| 20260508074523 | 7 | 134 | 0.0 | 1.6 | 0.00 | 0.00 | 0.00 | 82 | 1011.4 |
| 20260508074004 | 7 | 134 | 0.0 | 0.0 | 0.00 | 0.00 | 0.00 | 82 | 1011.3 |
| 20260508073505 | 7 | 134 | 0.0 | 0.0 | 0.00 | 0.00 | 0.00 | 82 | 1011.2 |
| 20260508073017 | 7 | 134 | 0.0 | 0.0 | 0.00 | 0.00 | 0.00 | 79 | 1011.3 |
| 20260508072503 | 7 | 134 | 0.0 | 0.0 | 0.00 | 0.00 | 0.00 | 79 | 1011.3 |
| 20260508072004 | 7 | 134 | 0.0 | 0.0 | 0.00 | 0.00 | 0.00 | 80 | 1011.4 |
| 20260508071531 | 7 | 134 | 0.0 | 0.0 | 0.00 | 0.00 | 0.00 | 79 | 1011.4 |
| 20260508071004 | 8 | 134 | 0.0 | 0.0 | 0.00 | 0.00 | 0.00 | 79 | 1011.4 |
| 20260508070510 | 8 | 134 | 0.0 | 0.0 | 0.00 | 0.00 | 0.00 | 77 | 1011.5 |
| 20260508070025 | 8 | 134 | 0.0 | 0.0 | 0.00 | 0.00 | 0.00 | 77 | 1011.5 |
| 20260508065508 | 8 | 134 | 0.0 | 0.0 | 0.00 | 0.00 | 0.00 | 78 | 1011.5 |
| 20260508065007 | 8 | 134 | 0.0 | 0.0 | 0.00 | 0.00 | 0.00 | 78 | 1011.4 |
| 20260508064526 | 8 | 134 | 0.0 | 0.0 | 0.00 | 0.00 | 0.00 | 77 | 1011.5 |
| 20260508064010 | 8 | 134 | 0.0 | 0.0 | 0.00 | 0.00 | 0.00 | 75 | 1011.5 |
| 20260508063502 | 8 | 134 | 0.0 | 0.0 | 0.00 | 0.00 | 0.00 | 75 | 1011.6 |
| 20260508063014 | 8 | 247 | 0.0 | 0.0 | 0.00 | 0.00 | 0.00 | 73 | 1011.7 |
| 20260508062504 | 8 | 247 | 0.0 | 1.6 | 0.00 | 0.00 | 0.00 | 73 | 1012.0 |
| 20260508062004 | 9 | 247 | 0.0 | 6.4 | 0.00 | 0.00 | 0.00 | 71 | 1012.1 |
| 20260508061521 | 9 | 255 | 0.0 | 6.4 | 0.00 | 0.00 | 0.00 | 71 | 1012.2 |
| 20260508061005 | 9 | 283 | 1.6 | 8.0 | 0.00 | 0.00 | 0.00 | 71 | 1012.3 |
| 20260508060505 | 9 | 267 | 3.2 | 8.0 | 0.00 | 0.00 | 0.00 | 70 | 1012.4 |
| 20260508060022 | 9 | 289 | 3.2 | 9.7 | 0.00 | 0.00 | 0.00 | 70 | 1012.5 |
| 20260508055506 | 9 | 249 | 3.2 | 9.7 | 0.00 | 0.00 | 0.00 | 70 | 1012.7 |
| 20260508055007 | 9 | 299 | 1.6 | 19.3 | 0.00 | 0.00 | 0.00 | 70 | 1012.7 |
| 20260508054525 | 9 | 260 | 3.2 | 19.3 | 0.00 | 0.00 | 0.00 | 71 | 1012.7 |
| 20260508054010 | 8 | 3 | 1.6 | 4.8 | 0.00 | 0.00 | 0.00 | 74 | 1012.8 |
| 20260508053509 | 8 | 302 | 1.6 | 4.8 | 0.00 | 0.00 | 0.00 | 73 | 1012.6 |
| 20260508053028 | 8 | 310 | 1.6 | 3.2 | 0.00 | 0.00 | 0.00 | 73 | 1012.3 |
| 20260508052511 | 8 | 127 | 0.0 | 1.6 | 0.00 | 0.00 | 0.00 | 72 | 1012.0 |
| 20260508052009 | 8 | 127 | 0.0 | 0.0 | 0.00 | 0.00 | 0.00 | 72 | 1011.8 |
| 20260508051527 | 8 | 127 | 0.0 | 0.0 | 0.00 | 0.00 | 0.00 | 74 | 1011.8 |
| 20260508051006 | 8 | 127 | 0.0 | 0.0 | 0.00 | 0.00 | 0.00 | 73 | 1011.8 |
| 20260508050506 | 8 | 127 | 0.0 | 1.6 | 0.00 | 0.00 | 0.00 | 74 | 1011.8 |
| 20260508050024 | 8 | 127 | 0.0 | 1.6 | 0.00 | 0.00 | 0.00 | 75 | 1011.8 |
| 20260508045507 | 8 | 127 | 0.0 | 0.0 | 0.00 | 0.00 | 0.00 | 73 | 1011.8 |
| 20260508045006 | 8 | 127 | 0.0 | 0.0 | 0.00 | 0.00 | 0.00 | 76 | 1011.8 |
| 20260508044524 | 8 | 127 | 0.0 | 0.0 | 0.00 | 0.00 | 0.00 | 75 | 1011.9 |
| 20260508044007 | 8 | 127 | 0.0 | 0.0 | 0.00 | 0.00 | 0.00 | 76 | 1011.8 |
| 20260508043509 | 8 | 127 | 0.0 | 0.0 | 0.00 | 0.00 | 0.00 | 74 | 1011.9 |
| 20260508043025 | 8 | 127 | 0.0 | 1.6 | 0.00 | 0.00 | 0.00 | 76 | 1011.9 |
| 20260508042511 | 8 | 127 | 0.0 | 1.6 | 0.00 | 0.00 | 0.00 | 76 | 1011.9 |
| 20260508042012 | 8 | 134 | 0.0 | 0.0 | 0.00 | 0.00 | 0.00 | 79 | 1011.9 |
| 20260508041528 | 8 | 147 | 0.0 | 0.0 | 0.00 | 0.00 | 0.00 | 78 | 1011.9 |
| 20260508041010 | 8 | 147 | 0.0 | 0.0 | 0.00 | 0.00 | 0.00 | 75 | 1012.0 |
| 20260508040512 | 8 | 147 | 0.0 | 0.0 | 0.00 | 0.00 | 0.00 | 74 | 1012.0 |
| 20260508040028 | 8 | 147 | 0.0 | 0.0 | 0.00 | 0.00 | 0.00 | 75 | 1011.9 |
| 20260508035502 | 8 | 147 | 0.0 | 0.0 | 0.00 | 0.00 | 0.00 | 75 | 1011.9 |
| 20260508035002 | 8 | 147 | 0.0 | 0.0 | 0.00 | 0.00 | 0.00 | 75 | 1011.9 |
| 20260508034506 | 8 | 147 | 0.0 | 0.0 | 0.00 | 0.00 | 0.00 | 75 | 1011.9 |
| 20260508034003 | 8 | 147 | 0.0 | 0.0 | 0.00 | 0.00 | 0.00 | 75 | 1012.0 |
| 20260508033505 | 8 | 147 | 0.0 | 0.0 | 0.00 | 0.00 | 0.00 | 74 | 1012.0 |
| 20260508033004 | 8 | 147 | 0.0 | 0.0 | 0.00 | 0.00 | 0.00 | 71 | 1012.1 |
| 20260508032504 | 8 | 147 | 0.0 | 1.6 | 0.00 | 0.00 | 0.00 | 72 | 1012.1 |
| 20260508032005 | 8 | 147 | 0.0 | 1.6 | 0.00 | 0.00 | 0.00 | 73 | 1012.1 |
| 20260508031508 | 8 | 153 | 0.0 | 1.6 | 0.00 | 0.00 | 0.00 | 75 | 1012.0 |
| 20260508031003 | 8 | 154 | 0.0 | 0.0 | 0.00 | 0.00 | 0.00 | 73 | 1012.1 |
| 20260508030503 | 8 | 154 | 0.0 | 0.0 | 0.00 | 0.00 | 0.00 | 72 | 1012.2 |
| 20260508030008 | 8 | 154 | 0.0 | 0.0 | 0.00 | 0.00 | 0.00 | 71 | 1012.1 |
| 20260508025503 | 8 | 153 | 0.0 | 0.0 | 0.00 | 0.00 | 0.00 | 70 | 1012.0 |
| 20260508025005 | 8 | 154 | 0.0 | 0.0 | 0.00 | 0.00 | 0.00 | 75 | 1012.1 |
| 20260508024509 | 8 | 154 | 0.0 | 0.0 | 0.00 | 0.00 | 0.00 | 77 | 1012.0 |
| 20260508024002 | 8 | 153 | 0.0 | 0.0 | 0.00 | 0.00 | 0.00 | 78 | 1011.9 |
| 20260508023502 | 8 | 154 | 0.0 | 0.0 | 0.00 | 0.00 | 0.00 | 73 | 1011.9 |
| 20260508023004 | 8 | 154 | 0.0 | 0.0 | 0.00 | 0.00 | 0.00 | 71 | 1012.0 |
| 20260508022503 | 8 | 153 | 0.0 | 0.0 | 0.00 | 0.00 | 0.00 | 69 | 1012.0 |
| 20260508022003 | 8 | 154 | 0.0 | 0.0 | 0.00 | 0.00 | 0.00 | 68 | 1011.9 |
| 20260508021515 | 8 | 154 | 0.0 | 0.0 | 0.00 | 0.00 | 0.00 | 69 | 1011.9 |
| 20260508021004 | 8 | 154 | 0.0 | 0.0 | 0.00 | 0.00 | 0.00 | 70 | 1011.9 |
| 20260508020503 | 8 | 154 | 0.0 | 0.0 | 0.00 | 0.00 | 0.00 | 70 | 1011.9 |
| 20260508020008 | 8 | 154 | 0.0 | 0.0 | 0.00 | 0.00 | 0.00 | 70 | 1011.9 |
| 20260508015502 | 8 | 153 | 0.0 | 0.0 | 0.00 | 0.00 | 0.00 | 70 | 1012.0 |
| 20260508015007 | 8 | 153 | 0.0 | 0.0 | 0.00 | 0.00 | 0.00 | 69 | 1012.0 |
| 20260508014513 | 8 | 154 | 0.0 | 0.0 | 0.00 | 0.00 | 0.00 | 69 | 1012.0 |
| 20260508014004 | 8 | 153 | 0.0 | 0.0 | 0.00 | 0.00 | 0.00 | 68 | 1012.0 |
| 20260508013502 | 8 | 154 | 0.0 | 0.0 | 0.00 | 0.00 | 0.00 | 64 | 1012.0 |
| 20260508013022 | 8 | 154 | 0.0 | 0.0 | 0.00 | 0.00 | 0.00 | 64 | 1011.9 |
| 20260508012506 | 8 | 154 | 0.0 | 0.0 | 0.00 | 0.00 | 0.00 | 66 | 1011.8 |
| 20260508012004 | 8 | 132 | 0.0 | 0.0 | 0.00 | 0.00 | 0.00 | 64 | 1011.8 |
| 20260508011508 | 8 | 252 | 0.0 | 0.0 | 0.00 | 0.00 | 0.00 | 63 | 1011.8 |
| 20260508011006 | 8 | 252 | 0.0 | 0.0 | 0.00 | 0.00 | 0.00 | 62 | 1011.8 |
| 20260508010503 | 8 | 252 | 0.0 | 0.0 | 0.00 | 0.00 | 0.00 | 60 | 1011.8 |
| 20260508010011 | 8 | 252 | 0.0 | 0.0 | 0.00 | 0.00 | 0.00 | 60 | 1011.8 |
| 20260508005505 | 8 | 252 | 0.0 | 0.0 | 0.00 | 0.00 | 0.00 | 59 | 1011.8 |
| 20260508005006 | 9 | 252 | 0.0 | 0.0 | 0.00 | 0.00 | 0.00 | 58 | 1011.8 |
| 20260508004509 | 10 | 252 | 0.0 | 0.0 | 0.00 | 0.00 | 0.00 | 58 | 1011.7 |
| 20260508004004 | 10 | 252 | 0.0 | 0.0 | 0.00 | 0.00 | 0.00 | 57 | 1011.7 |
| 20260508003511 | 10 | 252 | 0.0 | 1.6 | 0.00 | 0.00 | 0.00 | 56 | 1011.8 |
| 20260508003012 | 10 | 252 | 0.0 | 1.6 | 0.00 | 0.00 | 0.00 | 54 | 1011.7 |
| 20260508002504 | 11 | 252 | 0.0 | 1.6 | 0.00 | 0.00 | 0.00 | 52 | 1011.6 |
| 20260508002004 | 11 | 251 | 0.0 | 1.6 | 0.00 | 0.00 | 0.00 | 50 | 1011.6 |
| 20260508001517 | 11 | 273 | 0.0 | 0.0 | 0.00 | 0.00 | 0.00 | 49 | 1011.5 |
| 20260508001004 | 11 | 273 | 0.0 | 6.4 | 0.00 | 0.00 | 0.00 | 48 | 1011.5 |
| 20260508000504 | 12 | 273 | 0.0 | 6.4 | 0.00 | 0.00 | 0.00 | 46 | 1011.4 |
| 20260508000013 | 12 | 274 | 1.6 | 6.4 | 0.00 | 0.00 | 0.00 | 45 | 1011.4 |
| 20260507235503 | 12 | 231 | 0.0 | 4.8 | 0.00 | 0.00 | 0.00 | 44 | 1011.4 |
| 20260507235002 | 12 | 250 | 1.6 | 4.8 | 0.00 | 0.00 | 0.00 | 44 | 1011.3 |
| 20260507234504 | 12 | 276 | 0.0 | 6.4 | 0.00 | 0.00 | 0.00 | 43 | 1011.3 |
| 20260507234004 | 13 | 279 | 3.2 | 9.7 | 0.00 | 0.00 | 0.00 | 42 | 1011.3 |
| 20260507233504 | 13 | 313 | 3.2 | 11.3 | 0.00 | 0.00 | 0.00 | 42 | 1011.3 |
| 20260507233015 | 13 | 334 | 6.4 | 11.3 | 0.00 | 0.00 | 0.00 | 41 | 1011.3 |
| 20260507232504 | 13 | 319 | 3.2 | 6.4 | 0.00 | 0.00 | 0.00 | 41 | 1011.3 |
| 20260507232003 | 13 | 315 | 3.2 | 8.0 | 0.00 | 0.00 | 0.00 | 41 | 1011.3 |
| 20260507231513 | 13 | 296 | 4.8 | 8.0 | 0.00 | 0.00 | 0.00 | 41 | 1011.3 |
| 20260507231003 | 13 | 314 | 3.2 | 8.0 | 0.00 | 0.00 | 0.00 | 41 | 1011.3 |
| 20260507230507 | 13 | 328 | 4.8 | 8.0 | 0.00 | 0.00 | 0.00 | 41 | 1011.3 |
| 20260507230017 | 13 | 295 | 4.8 | 11.3 | 0.00 | 0.00 | 0.00 | 41 | 1011.4 |
| 20260507225504 | 13 | 273 | 3.2 | 12.9 | 0.00 | 0.00 | 0.00 | 41 | 1011.4 |
| 20260507225007 | 13 | 290 | 6.4 | 12.9 | 0.00 | 0.00 | 0.00 | 41 | 1011.4 |
| 20260507224517 | 14 | 302 | 3.2 | 16.1 | 0.00 | 0.00 | 0.00 | 41 | 1011.5 |
| 20260507224006 | 13 | 274 | 4.8 | 16.1 | 0.00 | 0.00 | 0.00 | 41 | 1011.5 |
| 20260507223504 | 13 | 272 | 8.0 | 14.5 | 0.00 | 0.00 | 0.00 | 41 | 1011.6 |
| 20260507223006 | 14 | 335 | 8.0 | 16.1 | 0.00 | 0.00 | 0.00 | 40 | 1011.6 |
| 20260507222504 | 14 | 300 | 8.0 | 20.9 | 0.00 | 0.00 | 0.00 | 42 | 1011.5 |
| 20260507222004 | 14 | 314 | 12.9 | 20.9 | 0.00 | 0.00 | 0.00 | 39 | 1011.5 |
| 20260507221517 | 14 | 307 | 8.0 | 16.1 | 0.00 | 0.00 | 0.00 | 39 | 1011.6 |
| 20260507221008 | 14 | 300 | 8.0 | 14.5 | 0.00 | 0.00 | 0.00 | 40 | 1011.6 |
| 20260507220506 | 14 | 275 | 8.0 | 16.1 | 0.00 | 0.00 | 0.00 | 41 | 1011.6 |
| 20260507220016 | 13 | 305 | 4.8 | 16.1 | 0.00 | 0.00 | 0.00 | 42 | 1011.6 |
| 20260507215504 | 13 | 319 | 8.0 | 17.7 | 0.00 | 0.00 | 0.00 | 42 | 1011.7 |
| 20260507215006 | 13 | 315 | 8.0 | 17.7 | 0.00 | 0.00 | 0.00 | 41 | 1011.6 |
| 20260507214525 | 13 | 279 | 8.0 | 17.7 | 0.00 | 0.00 | 0.00 | 42 | 1011.4 |
| 20260507214011 | 14 | 323 | 9.7 | 17.7 | 0.00 | 0.00 | 0.00 | 40 | 1011.5 |
| 20260507213513 | 14 | 249 | 12.9 | 19.3 | 0.00 | 0.00 | 0.00 | 41 | 1011.5 |
| 20260507213021 | 13 | 304 | 6.4 | 20.9 | 0.00 | 0.00 | 0.00 | 43 | 1011.4 |
| 20260507212507 | 13 | 292 | 9.7 | 20.9 | 0.00 | 0.00 | 0.00 | 42 | 1011.4 |
| 20260507212008 | 13 | 313 | 9.7 | 20.9 | 0.00 | 0.00 | 0.00 | 41 | 1011.4 |
| 20260507211522 | 14 | 326 | 8.0 | 20.9 | 0.00 | 0.00 | 0.00 | 43 | 1011.4 |
| 20260507211004 | 13 | 358 | 8.0 | 19.3 | 0.00 | 0.00 | 0.00 | 43 | 1011.3 |
| 20260507210504 | 13 | 299 | 9.7 | 19.3 | 0.00 | 0.00 | 0.00 | 42 | 1011.3 |
| 20260507210031 | 13 | 302 | 8.0 | 19.3 | 0.00 | 0.00 | 0.00 | 42 | 1011.4 |
| 20260507205505 | 13 | 304 | 9.7 | 22.5 | 0.00 | 0.00 | 0.00 | 40 | 1011.3 |
| 20260507205006 | 14 | 300 | 8.0 | 27.4 | 0.00 | 0.00 | 0.00 | 42 | 1011.3 |
| 20260507204513 | 13 | 307 | 11.3 | 27.4 | 0.00 | 0.00 | 0.00 | 39 | 1011.3 |
| 20260507204008 | 13 | 336 | 9.7 | 17.7 | 0.00 | 0.00 | 0.00 | 43 | 1011.2 |
| 20260507203506 | 13 | 294 | 8.0 | 19.3 | 0.00 | 0.00 | 0.00 | 41 | 1011.2 |
| 20260507203022 | 13 | 317 | 6.4 | 19.3 | 0.00 | 0.00 | 0.00 | 44 | 1011.1 |
| 20260507202507 | 13 | 295 | 6.4 | 17.7 | 0.00 | 0.00 | 0.00 | 43 | 1011.2 |
| 20260507202007 | 13 | 40 | 6.4 | 30.6 | 0.00 | 0.00 | 0.00 | 47 | 1011.1 |
| 20260507201522 | 13 | 348 | 12.9 | 30.6 | 0.00 | 0.00 | 0.00 | 44 | 1011.3 |
| 20260507201008 | 13 | 302 | 9.7 | 22.5 | 0.00 | 0.00 | 0.00 | 44 | 1011.4 |
| 20260507200508 | 13 | 301 | 12.9 | 22.5 | 0.00 | 0.00 | 0.00 | 44 | 1011.5 |
| 20260507200027 | 13 | 319 | 8.0 | 17.7 | 0.00 | 0.00 | 0.00 | 45 | 1011.3 |
| 20260507195508 | 13 | 303 | 8.0 | 20.9 | 0.00 | 0.00 | 0.00 | 48 | 1011.3 |
| 20260507195007 | 13 | 307 | 6.4 | 22.5 | 0.00 | 0.00 | 0.00 | 44 | 1011.3 |
| 20260507194513 | 13 | 25 | 8.0 | 22.5 | 0.00 | 0.00 | 0.00 | 45 | 1011.3 |
| 20260507194005 | 13 | 315 | 8.0 | 27.4 | 0.00 | 0.00 | 0.00 | 43 | 1011.4 |
| 20260507193506 | 13 | 335 | 12.9 | 27.4 | 0.00 | 0.00 | 0.00 | 44 | 1011.5 |
| 20260507193018 | 13 | 321 | 11.3 | 24.1 | 0.00 | 0.00 | 0.00 | 52 | 1011.5 |
| 20260507192507 | 13 | 321 | 8.0 | 20.9 | 0.00 | 0.00 | 0.00 | 47 | 1011.3 |
| 20260507192006 | 12 | 316 | 8.0 | 24.1 | 0.00 | 0.00 | 0.00 | 45 | 1011.4 |
| 20260507191522 | 13 | 317 | 12.9 | 24.1 | 0.00 | 0.00 | 0.00 | 46 | 1011.5 |
| 20260507191008 | 13 | 6 | 9.7 | 24.1 | 0.00 | 0.00 | 0.00 | 49 | 1011.6 |
| 20260507190507 | 13 | 321 | 11.3 | 22.5 | 0.00 | 0.00 | 0.00 | 48 | 1011.6 |
| 20260507190026 | 13 | 259 | 9.7 | 27.4 | 0.00 | 0.00 | 0.00 | 47 | 1011.6 |
| 20260507185506 | 13 | 302 | 12.9 | 27.4 | 0.00 | 0.00 | 0.00 | 50 | 1011.6 |
| 20260507185013 | 13 | 283 | 14.5 | 22.5 | 0.00 | 0.00 | 0.00 | 48 | 1011.7 |
| 20260507184525 | 13 | 314 | 8.0 | 25.7 | 0.00 | 0.00 | 0.00 | 49 | 1011.6 |
| 20260507184007 | 13 | 291 | 14.5 | 25.7 | 0.00 | 0.00 | 0.00 | 47 | 1011.6 |
| 20260507183511 | 13 | 278 | 11.3 | 20.9 | 0.00 | 0.00 | 0.00 | 46 | 1011.6 |
| 20260507183034 | 13 | 351 | 11.3 | 20.9 | 0.00 | 0.00 | 0.00 | 52 | 1011.7 |
| 20260507182507 | 12 | 279 | 8.0 | 22.5 | 0.00 | 0.00 | 0.00 | 51 | 1011.7 |
| 20260507182004 | 13 | 356 | 6.4 | 22.5 | 0.00 | 0.00 | 0.00 | 54 | 1011.7 |
| 20260507181518 | 13 | 297 | 12.9 | 22.5 | 0.00 | 0.00 | 0.00 | 53 | 1011.8 |
| 20260507181002 | 13 | 333 | 9.7 | 17.7 | 0.00 | 0.00 | 0.00 | 49 | 1011.7 |
| 20260507180502 | 12 | 320 | 8.0 | 24.1 | 0.00 | 0.00 | 0.00 | 49 | 1011.7 |
| 20260507180005 | 12 | 335 | 11.3 | 24.1 | 0.00 | 0.00 | 0.00 | 50 | 1011.7 |